sensor_id;sensor_type;location;lat;lon;timestamp;P1;durP1;ratioP1;P2;durP2;ratioP2
3299;SDS011;1662;49.310;8.134;2023-09-07T00:01:25;7.00;;;6.53;;
3299;SDS011;1662;49.310;8.134;2023-09-07T00:03:51;6.40;;;5.80;;
3299;SDS011;1662;49.310;8.134;2023-09-07T00:06:16;6.30;;;5.90;;
3299;SDS011;1662;49.310;8.134;2023-09-07T00:08:43;6.87;;;6.37;;
3299;SDS011;1662;49.310;8.134;2023-09-07T00:11:11;6.77;;;6.27;;
3299;SDS011;1662;49.310;8.134;2023-09-07T00:13:37;7.00;;;6.30;;
3299;SDS011;1662;49.310;8.134;2023-09-07T00:16:03;6.47;;;6.07;;
3299;SDS011;1662;49.310;8.134;2023-09-07T00:18:30;6.50;;;6.20;;
3299;SDS011;1662;49.310;8.134;2023-09-07T00:20:56;6.93;;;6.53;;
3299;SDS011;1662;49.310;8.134;2023-09-07T00:23:22;6.70;;;6.40;;
3299;SDS011;1662;49.310;8.134;2023-09-07T00:25:48;6.90;;;6.50;;
3299;SDS011;1662;49.310;8.134;2023-09-07T00:28:13;6.50;;;6.10;;
3299;SDS011;1662;49.310;8.134;2023-09-07T00:30:39;6.60;;;6.20;;
3299;SDS011;1662;49.310;8.134;2023-09-07T00:33:05;6.40;;;6.10;;
3299;SDS011;1662;49.310;8.134;2023-09-07T00:35:31;6.57;;;6.17;;
3299;SDS011;1662;49.310;8.134;2023-09-07T00:37:57;6.63;;;6.13;;
3299;SDS011;1662;49.310;8.134;2023-09-07T00:40:22;7.13;;;6.60;;
3299;SDS011;1662;49.310;8.134;2023-09-07T00:42:48;8.13;;;6.33;;
3299;SDS011;1662;49.310;8.134;2023-09-07T00:45:14;7.10;;;6.53;;
3299;SDS011;1662;49.310;8.134;2023-09-07T00:47:40;6.60;;;6.10;;
3299;SDS011;1662;49.310;8.134;2023-09-07T00:50:06;6.00;;;5.70;;
3299;SDS011;1662;49.310;8.134;2023-09-07T00:52:38;6.90;;;6.43;;
3299;SDS011;1662;49.310;8.134;2023-09-07T00:55:05;5.90;;;5.60;;
3299;SDS011;1662;49.310;8.134;2023-09-07T00:57:32;6.20;;;5.80;;
3299;SDS011;1662;49.310;8.134;2023-09-07T00:59:58;6.13;;;5.80;;
3299;SDS011;1662;49.310;8.134;2023-09-07T01:02:24;6.03;;;5.53;;
3299;SDS011;1662;49.310;8.134;2023-09-07T01:04:50;6.20;;;5.73;;
3299;SDS011;1662;49.310;8.134;2023-09-07T01:07:29;8.93;;;5.80;;
3299;SDS011;1662;49.310;8.134;2023-09-07T01:09:56;5.77;;;5.47;;
3299;SDS011;1662;49.310;8.134;2023-09-07T01:12:25;6.30;;;5.90;;
3299;SDS011;1662;49.310;8.134;2023-09-07T01:14:51;5.87;;;5.57;;
3299;SDS011;1662;49.310;8.134;2023-09-07T01:17:18;6.60;;;6.20;;
3299;SDS011;1662;49.310;8.134;2023-09-07T01:19:43;6.70;;;6.10;;
3299;SDS011;1662;49.310;8.134;2023-09-07T01:22:10;5.40;;;5.13;;
3299;SDS011;1662;49.310;8.134;2023-09-07T01:24:37;6.30;;;5.73;;
3299;SDS011;1662;49.310;8.134;2023-09-07T01:27:04;6.80;;;6.30;;
3299;SDS011;1662;49.310;8.134;2023-09-07T01:29:33;5.67;;;5.37;;
3299;SDS011;1662;49.310;8.134;2023-09-07T01:31:58;5.50;;;5.20;;
3299;SDS011;1662;49.310;8.134;2023-09-07T01:34:24;6.30;;;5.90;;
3299;SDS011;1662;49.310;8.134;2023-09-07T01:36:52;5.60;;;5.30;;
3299;SDS011;1662;49.310;8.134;2023-09-07T01:39:18;5.43;;;5.13;;
3299;SDS011;1662;49.310;8.134;2023-09-07T01:41:46;5.90;;;5.50;;
3299;SDS011;1662;49.310;8.134;2023-09-07T01:44:12;6.40;;;6.00;;
3299;SDS011;1662;49.310;8.134;2023-09-07T01:46:40;6.30;;;5.77;;
3299;SDS011;1662;49.310;8.134;2023-09-07T01:49:06;6.57;;;6.03;;
3299;SDS011;1662;49.310;8.134;2023-09-07T01:51:31;5.80;;;5.50;;
3299;SDS011;1662;49.310;8.134;2023-09-07T01:53:57;6.50;;;6.00;;
3299;SDS011;1662;49.310;8.134;2023-09-07T01:56:22;6.37;;;5.87;;
3299;SDS011;1662;49.310;8.134;2023-09-07T01:58:48;5.90;;;5.37;;
3299;SDS011;1662;49.310;8.134;2023-09-07T02:01:23;6.20;;;5.67;;
3299;SDS011;1662;49.310;8.134;2023-09-07T02:03:50;7.40;;;6.40;;
3299;SDS011;1662;49.310;8.134;2023-09-07T02:06:20;5.83;;;5.53;;
3299;SDS011;1662;49.310;8.134;2023-09-07T02:08:46;6.40;;;5.93;;
3299;SDS011;1662;49.310;8.134;2023-09-07T02:11:12;7.33;;;6.67;;
3299;SDS011;1662;49.310;8.134;2023-09-07T02:13:41;6.67;;;6.00;;
3299;SDS011;1662;49.310;8.134;2023-09-07T02:16:09;6.60;;;5.83;;
3299;SDS011;1662;49.310;8.134;2023-09-07T02:18:37;5.53;;;5.20;;
3299;SDS011;1662;49.310;8.134;2023-09-07T02:21:05;5.77;;;5.43;;
3299;SDS011;1662;49.310;8.134;2023-09-07T02:23:33;5.30;;;4.93;;
3299;SDS011;1662;49.310;8.134;2023-09-07T02:25:59;6.30;;;5.90;;
3299;SDS011;1662;49.310;8.134;2023-09-07T02:28:25;5.80;;;5.50;;
3299;SDS011;1662;49.310;8.134;2023-09-07T02:30:51;5.97;;;5.67;;
3299;SDS011;1662;49.310;8.134;2023-09-07T02:33:17;5.57;;;5.17;;
3299;SDS011;1662;49.310;8.134;2023-09-07T02:35:43;5.93;;;5.53;;
3299;SDS011;1662;49.310;8.134;2023-09-07T02:38:08;6.03;;;5.60;;
3299;SDS011;1662;49.310;8.134;2023-09-07T02:40:43;6.53;;;6.10;;
3299;SDS011;1662;49.310;8.134;2023-09-07T02:43:09;6.23;;;5.93;;
3299;SDS011;1662;49.310;8.134;2023-09-07T02:45:35;5.60;;;5.30;;
3299;SDS011;1662;49.310;8.134;2023-09-07T02:48:01;5.80;;;5.40;;
3299;SDS011;1662;49.310;8.134;2023-09-07T02:50:31;5.83;;;5.53;;
3299;SDS011;1662;49.310;8.134;2023-09-07T02:52:58;5.70;;;5.47;;
3299;SDS011;1662;49.310;8.134;2023-09-07T02:55:26;6.10;;;5.70;;
3299;SDS011;1662;49.310;8.134;2023-09-07T02:57:52;6.37;;;5.97;;
3299;SDS011;1662;49.310;8.134;2023-09-07T03:00:18;6.43;;;6.03;;
3299;SDS011;1662;49.310;8.134;2023-09-07T03:02:44;5.57;;;5.17;;
3299;SDS011;1662;49.310;8.134;2023-09-07T03:05:10;7.00;;;6.50;;
3299;SDS011;1662;49.310;8.134;2023-09-07T03:07:35;6.13;;;5.73;;
3299;SDS011;1662;49.310;8.134;2023-09-07T03:10:01;6.10;;;5.70;;
3299;SDS011;1662;49.310;8.134;2023-09-07T03:12:27;5.90;;;5.37;;
3299;SDS011;1662;49.310;8.134;2023-09-07T03:14:53;6.77;;;5.73;;
3299;SDS011;1662;49.310;8.134;2023-09-07T03:17:18;6.07;;;5.70;;
3299;SDS011;1662;49.310;8.134;2023-09-07T03:19:46;6.40;;;5.80;;
3299;SDS011;1662;49.310;8.134;2023-09-07T03:22:12;6.40;;;5.97;;
3299;SDS011;1662;49.310;8.134;2023-09-07T03:24:38;7.07;;;6.40;;
3299;SDS011;1662;49.310;8.134;2023-09-07T03:27:04;6.40;;;5.90;;
3299;SDS011;1662;49.310;8.134;2023-09-07T03:29:30;7.30;;;6.70;;
3299;SDS011;1662;49.310;8.134;2023-09-07T03:31:58;6.07;;;5.77;;
3299;SDS011;1662;49.310;8.134;2023-09-07T03:34:27;6.33;;;5.80;;
3299;SDS011;1662;49.310;8.134;2023-09-07T03:36:53;5.53;;;5.13;;
3299;SDS011;1662;49.310;8.134;2023-09-07T03:39:18;6.70;;;6.13;;
3299;SDS011;1662;49.310;8.134;2023-09-07T03:41:47;6.07;;;5.53;;
3299;SDS011;1662;49.310;8.134;2023-09-07T03:44:15;6.00;;;5.60;;
3299;SDS011;1662;49.310;8.134;2023-09-07T03:46:43;6.43;;;5.90;;
3299;SDS011;1662;49.310;8.134;2023-09-07T03:49:08;7.03;;;6.53;;
3299;SDS011;1662;49.310;8.134;2023-09-07T03:51:36;5.83;;;5.50;;
3299;SDS011;1662;49.310;8.134;2023-09-07T03:54:02;6.80;;;6.30;;
3299;SDS011;1662;49.310;8.134;2023-09-07T03:56:30;7.83;;;5.87;;
3299;SDS011;1662;49.310;8.134;2023-09-07T03:58:56;8.90;;;6.60;;
3299;SDS011;1662;49.310;8.134;2023-09-07T04:08:32;6.13;;;5.73;;
3299;SDS011;1662;49.310;8.134;2023-09-07T04:10:58;7.87;;;6.00;;
3299;SDS011;1662;49.310;8.134;2023-09-07T04:13:28;6.13;;;5.70;;
3299;SDS011;1662;49.310;8.134;2023-09-07T04:15:54;6.20;;;5.80;;
3299;SDS011;1662;49.310;8.134;2023-09-07T04:18:23;7.40;;;5.80;;
3299;SDS011;1662;49.310;8.134;2023-09-07T04:20:52;6.10;;;5.70;;
3299;SDS011;1662;49.310;8.134;2023-09-07T04:23:18;6.20;;;5.70;;
3299;SDS011;1662;49.310;8.134;2023-09-07T04:25:44;6.57;;;6.17;;
3299;SDS011;1662;49.310;8.134;2023-09-07T04:28:10;6.93;;;5.70;;
3299;SDS011;1662;49.310;8.134;2023-09-07T04:30:39;6.10;;;5.63;;
3299;SDS011;1662;49.310;8.134;2023-09-07T04:33:09;6.90;;;6.30;;
3299;SDS011;1662;49.310;8.134;2023-09-07T04:35:38;6.67;;;6.10;;
3299;SDS011;1662;49.310;8.134;2023-09-07T04:38:04;5.77;;;5.37;;
3299;SDS011;1662;49.310;8.134;2023-09-07T04:40:30;6.63;;;6.20;;
3299;SDS011;1662;49.310;8.134;2023-09-07T04:42:56;5.20;;;4.90;;
3299;SDS011;1662;49.310;8.134;2023-09-07T04:45:22;5.57;;;5.27;;
3299;SDS011;1662;49.310;8.134;2023-09-07T04:47:49;7.50;;;6.27;;
3299;SDS011;1662;49.310;8.134;2023-09-07T04:50:18;7.77;;;7.10;;
3299;SDS011;1662;49.310;8.134;2023-09-07T04:52:44;7.23;;;6.70;;
3299;SDS011;1662;49.310;8.134;2023-09-07T04:55:12;6.07;;;5.67;;
3299;SDS011;1662;49.310;8.134;2023-09-07T04:57:41;6.30;;;5.90;;
3299;SDS011;1662;49.310;8.134;2023-09-07T05:00:07;6.10;;;5.60;;
3299;SDS011;1662;49.310;8.134;2023-09-07T05:02:36;7.07;;;6.50;;
3299;SDS011;1662;49.310;8.134;2023-09-07T05:05:07;6.27;;;5.77;;
3299;SDS011;1662;49.310;8.134;2023-09-07T05:07:34;6.43;;;5.80;;
3299;SDS011;1662;49.310;8.134;2023-09-07T05:10:00;7.70;;;7.03;;
3299;SDS011;1662;49.310;8.134;2023-09-07T05:12:26;6.93;;;6.33;;
3299;SDS011;1662;49.310;8.134;2023-09-07T05:14:55;6.80;;;6.23;;
3299;SDS011;1662;49.310;8.134;2023-09-07T05:17:21;8.07;;;7.37;;
3299;SDS011;1662;49.310;8.134;2023-09-07T05:19:50;9.37;;;8.60;;
3299;SDS011;1662;49.310;8.134;2023-09-07T05:22:16;8.23;;;7.53;;
3299;SDS011;1662;49.310;8.134;2023-09-07T05:24:42;7.83;;;7.13;;
3299;SDS011;1662;49.310;8.134;2023-09-07T05:27:13;8.97;;;8.13;;
3299;SDS011;1662;49.310;8.134;2023-09-07T05:29:39;8.33;;;7.53;;
3299;SDS011;1662;49.310;8.134;2023-09-07T05:32:05;8.30;;;7.60;;
3299;SDS011;1662;49.310;8.134;2023-09-07T05:34:34;7.90;;;7.10;;
3299;SDS011;1662;49.310;8.134;2023-09-07T05:37:00;7.77;;;7.17;;
3299;SDS011;1662;49.310;8.134;2023-09-07T05:39:26;7.53;;;6.93;;
3299;SDS011;1662;49.310;8.134;2023-09-07T05:41:52;6.93;;;6.47;;
3299;SDS011;1662;49.310;8.134;2023-09-07T05:44:18;7.93;;;7.23;;
3299;SDS011;1662;49.310;8.134;2023-09-07T05:46:44;7.80;;;7.00;;
3299;SDS011;1662;49.310;8.134;2023-09-07T05:49:10;7.50;;;6.90;;
3299;SDS011;1662;49.310;8.134;2023-09-07T05:51:36;6.97;;;6.33;;
3299;SDS011;1662;49.310;8.134;2023-09-07T05:54:01;6.90;;;6.30;;
3299;SDS011;1662;49.310;8.134;2023-09-07T05:56:27;6.90;;;6.40;;
3299;SDS011;1662;49.310;8.134;2023-09-07T05:58:53;7.70;;;7.10;;
3299;SDS011;1662;49.310;8.134;2023-09-07T06:01:18;7.20;;;6.67;;
3299;SDS011;1662;49.310;8.134;2023-09-07T06:03:44;6.07;;;5.70;;
3299;SDS011;1662;49.310;8.134;2023-09-07T06:06:09;7.30;;;6.70;;
3299;SDS011;1662;49.310;8.134;2023-09-07T06:08:38;5.73;;;5.43;;
3299;SDS011;1662;49.310;8.134;2023-09-07T06:11:03;6.47;;;5.93;;
3299;SDS011;1662;49.310;8.134;2023-09-07T06:13:29;6.63;;;6.00;;
3299;SDS011;1662;49.310;8.134;2023-09-07T06:15:54;6.10;;;5.80;;
3299;SDS011;1662;49.310;8.134;2023-09-07T06:18:20;5.70;;;5.30;;
3299;SDS011;1662;49.310;8.134;2023-09-07T06:20:45;5.17;;;4.87;;
3299;SDS011;1662;49.310;8.134;2023-09-07T06:23:11;6.30;;;5.80;;
3299;SDS011;1662;49.310;8.134;2023-09-07T06:25:37;5.63;;;5.33;;
3299;SDS011;1662;49.310;8.134;2023-09-07T06:28:03;5.40;;;5.10;;
3299;SDS011;1662;49.310;8.134;2023-09-07T06:30:28;5.40;;;5.07;;
3299;SDS011;1662;49.310;8.134;2023-09-07T06:32:54;5.30;;;4.90;;
3299;SDS011;1662;49.310;8.134;2023-09-07T06:35:21;5.73;;;5.20;;
3299;SDS011;1662;49.310;8.134;2023-09-07T06:37:47;4.87;;;4.57;;
3299;SDS011;1662;49.310;8.134;2023-09-07T06:40:12;5.27;;;4.97;;
3299;SDS011;1662;49.310;8.134;2023-09-07T06:42:39;5.00;;;4.70;;
3299;SDS011;1662;49.310;8.134;2023-09-07T06:45:05;5.93;;;5.03;;
3299;SDS011;1662;49.310;8.134;2023-09-07T06:47:35;5.73;;;5.43;;
3299;SDS011;1662;49.310;8.134;2023-09-07T06:50:03;6.27;;;5.67;;
3299;SDS011;1662;49.310;8.134;2023-09-07T06:52:30;5.20;;;4.90;;
3299;SDS011;1662;49.310;8.134;2023-09-07T06:54:55;4.90;;;4.67;;
3299;SDS011;1662;49.310;8.134;2023-09-07T06:57:21;6.13;;;5.73;;
3299;SDS011;1662;49.310;8.134;2023-09-07T06:59:54;7.27;;;5.83;;
3299;SDS011;1662;49.310;8.134;2023-09-07T07:02:20;5.87;;;5.50;;
3299;SDS011;1662;49.310;8.134;2023-09-07T07:04:45;5.77;;;5.37;;
3299;SDS011;1662;49.310;8.134;2023-09-07T07:07:11;6.97;;;6.43;;
3299;SDS011;1662;49.310;8.134;2023-09-07T07:09:37;6.73;;;6.23;;
3299;SDS011;1662;49.310;8.134;2023-09-07T07:12:02;5.77;;;5.37;;
3299;SDS011;1662;49.310;8.134;2023-09-07T07:14:28;5.53;;;5.20;;
3299;SDS011;1662;49.310;8.134;2023-09-07T07:16:54;5.57;;;5.27;;
3299;SDS011;1662;49.310;8.134;2023-09-07T07:19:19;6.00;;;5.70;;
3299;SDS011;1662;49.310;8.134;2023-09-07T07:21:45;6.33;;;5.83;;
3299;SDS011;1662;49.310;8.134;2023-09-07T07:24:10;6.47;;;5.87;;
3299;SDS011;1662;49.310;8.134;2023-09-07T07:26:39;6.10;;;5.80;;
3299;SDS011;1662;49.310;8.134;2023-09-07T07:29:05;5.63;;;5.23;;
3299;SDS011;1662;49.310;8.134;2023-09-07T07:31:30;6.10;;;5.50;;
3299;SDS011;1662;49.310;8.134;2023-09-07T07:33:56;6.00;;;5.63;;
3299;SDS011;1662;49.310;8.134;2023-09-07T07:36:22;6.73;;;6.13;;
3299;SDS011;1662;49.310;8.134;2023-09-07T07:38:48;6.70;;;6.23;;
3299;SDS011;1662;49.310;8.134;2023-09-07T07:41:13;6.20;;;5.80;;
3299;SDS011;1662;49.310;8.134;2023-09-07T07:43:39;6.33;;;6.03;;
3299;SDS011;1662;49.310;8.134;2023-09-07T07:46:05;6.00;;;5.60;;
3299;SDS011;1662;49.310;8.134;2023-09-07T07:48:30;6.20;;;5.80;;
3299;SDS011;1662;49.310;8.134;2023-09-07T07:50:56;6.60;;;6.20;;
3299;SDS011;1662;49.310;8.134;2023-09-07T07:53:21;6.67;;;6.10;;
3299;SDS011;1662;49.310;8.134;2023-09-07T07:55:47;6.60;;;6.20;;
3299;SDS011;1662;49.310;8.134;2023-09-07T07:58:13;6.50;;;6.07;;
3299;SDS011;1662;49.310;8.134;2023-09-07T08:00:42;7.37;;;6.87;;
3299;SDS011;1662;49.310;8.134;2023-09-07T08:03:12;8.10;;;7.30;;
3299;SDS011;1662;49.310;8.134;2023-09-07T08:05:38;6.53;;;6.13;;
3299;SDS011;1662;49.310;8.134;2023-09-07T08:08:04;6.83;;;6.33;;
3299;SDS011;1662;49.310;8.134;2023-09-07T08:10:33;7.67;;;6.97;;
3299;SDS011;1662;49.310;8.134;2023-09-07T08:13:04;6.40;;;5.90;;
3299;SDS011;1662;49.310;8.134;2023-09-07T08:15:31;5.60;;;5.30;;
3299;SDS011;1662;49.310;8.134;2023-09-07T08:17:57;6.70;;;6.30;;
3299;SDS011;1662;49.310;8.134;2023-09-07T08:20:24;6.70;;;6.20;;
3299;SDS011;1662;49.310;8.134;2023-09-07T08:22:50;6.13;;;5.60;;
3299;SDS011;1662;49.310;8.134;2023-09-07T08:25:20;8.10;;;7.50;;
3299;SDS011;1662;49.310;8.134;2023-09-07T08:27:46;6.17;;;5.87;;
3299;SDS011;1662;49.310;8.134;2023-09-07T08:30:16;7.30;;;6.60;;
3299;SDS011;1662;49.310;8.134;2023-09-07T08:32:43;6.90;;;6.30;;
3299;SDS011;1662;49.310;8.134;2023-09-07T08:35:10;6.67;;;6.23;;
3299;SDS011;1662;49.310;8.134;2023-09-07T08:37:40;7.47;;;6.80;;
3299;SDS011;1662;49.310;8.134;2023-09-07T08:40:06;6.50;;;6.00;;
3299;SDS011;1662;49.310;8.134;2023-09-07T08:42:32;6.60;;;6.20;;
3299;SDS011;1662;49.310;8.134;2023-09-07T08:45:01;6.57;;;6.07;;
3299;SDS011;1662;49.310;8.134;2023-09-07T08:47:31;6.60;;;6.00;;
3299;SDS011;1662;49.310;8.134;2023-09-07T08:49:58;7.50;;;7.00;;
3299;SDS011;1662;49.310;8.134;2023-09-07T08:52:24;7.27;;;6.87;;
3299;SDS011;1662;49.310;8.134;2023-09-07T08:54:50;6.47;;;6.00;;
3299;SDS011;1662;49.310;8.134;2023-09-07T08:57:17;7.63;;;6.97;;
3299;SDS011;1662;49.310;8.134;2023-09-07T08:59:43;7.50;;;7.00;;
3299;SDS011;1662;49.310;8.134;2023-09-07T09:02:09;7.70;;;7.20;;
3299;SDS011;1662;49.310;8.134;2023-09-07T09:04:36;7.90;;;7.10;;
3299;SDS011;1662;49.310;8.134;2023-09-07T09:07:04;7.10;;;6.60;;
3299;SDS011;1662;49.310;8.134;2023-09-07T09:09:32;7.90;;;7.30;;
3299;SDS011;1662;49.310;8.134;2023-09-07T09:12:08;6.20;;;5.80;;
3299;SDS011;1662;49.310;8.134;2023-09-07T09:14:34;7.53;;;6.97;;
3299;SDS011;1662;49.310;8.134;2023-09-07T09:17:00;7.50;;;7.00;;
3299;SDS011;1662;49.310;8.134;2023-09-07T09:19:32;7.50;;;6.87;;
3299;SDS011;1662;49.310;8.134;2023-09-07T09:21:58;7.67;;;7.07;;
3299;SDS011;1662;49.310;8.134;2023-09-07T09:24:24;7.03;;;6.63;;
3299;SDS011;1662;49.310;8.134;2023-09-07T09:26:52;7.67;;;7.07;;
3299;SDS011;1662;49.310;8.134;2023-09-07T09:29:23;7.03;;;6.53;;
3299;SDS011;1662;49.310;8.134;2023-09-07T09:31:50;8.20;;;7.50;;
3299;SDS011;1662;49.310;8.134;2023-09-07T09:34:18;7.57;;;7.03;;
3299;SDS011;1662;49.310;8.134;2023-09-07T09:36:44;8.63;;;7.93;;
3299;SDS011;1662;49.310;8.134;2023-09-07T09:39:21;6.83;;;6.37;;
3299;SDS011;1662;49.310;8.134;2023-09-07T09:41:52;7.87;;;7.37;;
3299;SDS011;1662;49.310;8.134;2023-09-07T09:44:19;7.20;;;6.80;;
3299;SDS011;1662;49.310;8.134;2023-09-07T09:46:47;6.60;;;6.27;;
3299;SDS011;1662;49.310;8.134;2023-09-07T09:49:14;7.63;;;6.83;;
3299;SDS011;1662;49.310;8.134;2023-09-07T09:51:42;7.90;;;7.40;;
3299;SDS011;1662;49.310;8.134;2023-09-07T09:54:08;7.93;;;7.33;;
3299;SDS011;1662;49.310;8.134;2023-09-07T09:56:36;7.03;;;6.53;;
3299;SDS011;1662;49.310;8.134;2023-09-07T09:59:02;7.70;;;7.20;;
3299;SDS011;1662;49.310;8.134;2023-09-07T10:01:29;17.17;;;8.53;;
3299;SDS011;1662;49.310;8.134;2023-09-07T10:03:55;9.07;;;8.43;;
3299;SDS011;1662;49.310;8.134;2023-09-07T10:06:25;10.77;;;8.00;;
3299;SDS011;1662;49.310;8.134;2023-09-07T10:08:59;7.87;;;7.27;;
3299;SDS011;1662;49.310;8.134;2023-09-07T10:11:33;7.67;;;7.07;;
3299;SDS011;1662;49.310;8.134;2023-09-07T10:14:02;7.93;;;7.43;;
3299;SDS011;1662;49.310;8.134;2023-09-07T10:16:40;7.90;;;7.33;;
3299;SDS011;1662;49.310;8.134;2023-09-07T10:21:42;7.63;;;7.10;;
3299;SDS011;1662;49.310;8.134;2023-09-07T10:24:08;8.40;;;7.67;;
3299;SDS011;1662;49.310;8.134;2023-09-07T10:26:33;7.90;;;7.20;;
3299;SDS011;1662;49.310;8.134;2023-09-07T10:28:59;7.23;;;6.83;;
3299;SDS011;1662;49.310;8.134;2023-09-07T10:31:28;8.20;;;7.67;;
3299;SDS011;1662;49.310;8.134;2023-09-07T10:34:07;7.80;;;7.10;;
3299;SDS011;1662;49.310;8.134;2023-09-07T10:36:37;8.27;;;7.50;;
3299;SDS011;1662;49.310;8.134;2023-09-07T10:39:02;8.80;;;8.07;;
3299;SDS011;1662;49.310;8.134;2023-09-07T10:41:39;9.07;;;8.47;;
3299;SDS011;1662;49.310;8.134;2023-09-07T10:44:09;7.63;;;7.13;;
3299;SDS011;1662;49.310;8.134;2023-09-07T10:46:38;8.30;;;7.60;;
3299;SDS011;1662;49.310;8.134;2023-09-07T10:49:06;8.20;;;7.70;;
3299;SDS011;1662;49.310;8.134;2023-09-07T10:51:46;7.70;;;7.20;;
3299;SDS011;1662;49.310;8.134;2023-09-07T10:56:43;10.37;;;8.20;;
3299;SDS011;1662;49.310;8.134;2023-09-07T10:59:14;9.10;;;7.63;;
3299;SDS011;1662;49.310;8.134;2023-09-07T11:01:41;9.60;;;8.50;;
3299;SDS011;1662;49.310;8.134;2023-09-07T11:04:08;8.33;;;7.87;;
3299;SDS011;1662;49.310;8.134;2023-09-07T11:06:36;7.93;;;7.43;;
3299;SDS011;1662;49.310;8.134;2023-09-07T11:09:03;8.27;;;7.63;;
3299;SDS011;1662;49.310;8.134;2023-09-07T11:11:31;8.60;;;8.00;;
3299;SDS011;1662;49.310;8.134;2023-09-07T11:13:58;9.13;;;8.53;;
3299;SDS011;1662;49.310;8.134;2023-09-07T11:16:24;9.93;;;8.93;;
3299;SDS011;1662;49.310;8.134;2023-09-07T11:18:52;7.90;;;7.50;;
3299;SDS011;1662;49.310;8.134;2023-09-07T11:21:19;8.70;;;8.03;;
3299;SDS011;1662;49.310;8.134;2023-09-07T11:23:45;8.63;;;8.00;;
3299;SDS011;1662;49.310;8.134;2023-09-07T11:26:11;7.43;;;7.00;;
3299;SDS011;1662;49.310;8.134;2023-09-07T11:28:37;9.13;;;8.33;;
3299;SDS011;1662;49.310;8.134;2023-09-07T11:31:03;8.77;;;8.17;;
3299;SDS011;1662;49.310;8.134;2023-09-07T11:33:31;7.80;;;7.40;;
3299;SDS011;1662;49.310;8.134;2023-09-07T11:35:58;8.10;;;7.53;;
3299;SDS011;1662;49.310;8.134;2023-09-07T11:38:27;8.07;;;7.67;;
3299;SDS011;1662;49.310;8.134;2023-09-07T11:40:55;7.90;;;7.40;;
3299;SDS011;1662;49.310;8.134;2023-09-07T11:43:21;8.33;;;7.80;;
3299;SDS011;1662;49.310;8.134;2023-09-07T11:45:47;8.23;;;7.73;;
3299;SDS011;1662;49.310;8.134;2023-09-07T11:48:13;8.97;;;8.43;;
3299;SDS011;1662;49.310;8.134;2023-09-07T11:50:39;9.13;;;8.50;;
3299;SDS011;1662;49.310;8.134;2023-09-07T11:53:08;14.73;;;7.63;;
3299;SDS011;1662;49.310;8.134;2023-09-07T11:55:34;8.57;;;8.13;;
3299;SDS011;1662;49.310;8.134;2023-09-07T11:58:00;7.77;;;7.37;;
3299;SDS011;1662;49.310;8.134;2023-09-07T12:00:27;8.47;;;8.07;;
3299;SDS011;1662;49.310;8.134;2023-09-07T12:02:53;8.17;;;7.77;;
3299;SDS011;1662;49.310;8.134;2023-09-07T12:05:18;8.77;;;8.23;;
3299;SDS011;1662;49.310;8.134;2023-09-07T12:07:44;8.30;;;7.80;;
3299;SDS011;1662;49.310;8.134;2023-09-07T12:10:10;9.20;;;8.50;;
3299;SDS011;1662;49.310;8.134;2023-09-07T12:12:37;8.83;;;8.13;;
3299;SDS011;1662;49.310;8.134;2023-09-07T12:15:03;7.90;;;7.50;;
3299;SDS011;1662;49.310;8.134;2023-09-07T12:17:30;8.53;;;8.13;;
3299;SDS011;1662;49.310;8.134;2023-09-07T12:19:56;9.10;;;8.60;;
3299;SDS011;1662;49.310;8.134;2023-09-07T12:22:21;9.27;;;8.67;;
3299;SDS011;1662;49.310;8.134;2023-09-07T12:24:47;8.30;;;7.90;;
3299;SDS011;1662;49.310;8.134;2023-09-07T12:27:13;9.27;;;8.73;;
3299;SDS011;1662;49.310;8.134;2023-09-07T12:29:41;9.37;;;8.87;;
3299;SDS011;1662;49.310;8.134;2023-09-07T12:32:07;10.13;;;9.60;;
3299;SDS011;1662;49.310;8.134;2023-09-07T12:34:32;8.13;;;7.73;;
3299;SDS011;1662;49.310;8.134;2023-09-07T12:36:58;11.23;;;9.63;;
3299;SDS011;1662;49.310;8.134;2023-09-07T12:39:23;9.00;;;8.60;;
3299;SDS011;1662;49.310;8.134;2023-09-07T12:41:49;9.40;;;8.73;;
3299;SDS011;1662;49.310;8.134;2023-09-07T12:44:15;8.80;;;8.40;;
3299;SDS011;1662;49.310;8.134;2023-09-07T12:46:43;8.93;;;8.53;;
3299;SDS011;1662;49.310;8.134;2023-09-07T12:49:09;9.23;;;8.73;;
3299;SDS011;1662;49.310;8.134;2023-09-07T12:51:35;9.90;;;9.30;;
3299;SDS011;1662;49.310;8.134;2023-09-07T12:54:00;9.10;;;8.80;;
3299;SDS011;1662;49.310;8.134;2023-09-07T12:56:26;9.43;;;8.93;;
3299;SDS011;1662;49.310;8.134;2023-09-07T12:58:52;10.50;;;9.80;;
3299;SDS011;1662;49.310;8.134;2023-09-07T13:01:18;10.27;;;9.67;;
3299;SDS011;1662;49.310;8.134;2023-09-07T13:03:43;9.57;;;9.13;;
3299;SDS011;1662;49.310;8.134;2023-09-07T13:06:09;9.17;;;8.67;;
3299;SDS011;1662;49.310;8.134;2023-09-07T13:08:35;10.60;;;9.90;;
3299;SDS011;1662;49.310;8.134;2023-09-07T13:11:01;10.60;;;10.10;;
3299;SDS011;1662;49.310;8.134;2023-09-07T13:13:26;9.73;;;9.20;;
3299;SDS011;1662;49.310;8.134;2023-09-07T13:15:55;9.70;;;9.20;;
3299;SDS011;1662;49.310;8.134;2023-09-07T13:18:21;9.50;;;9.00;;
3299;SDS011;1662;49.310;8.134;2023-09-07T13:20:47;10.20;;;9.60;;
3299;SDS011;1662;49.310;8.134;2023-09-07T13:23:14;9.50;;;9.00;;
3299;SDS011;1662;49.310;8.134;2023-09-07T13:25:40;10.40;;;9.97;;
3299;SDS011;1662;49.310;8.134;2023-09-07T13:28:06;9.27;;;8.87;;
3299;SDS011;1662;49.310;8.134;2023-09-07T13:30:34;9.57;;;9.17;;
3299;SDS011;1662;49.310;8.134;2023-09-07T13:33:00;10.00;;;9.57;;
3299;SDS011;1662;49.310;8.134;2023-09-07T13:35:26;9.90;;;9.30;;
3299;SDS011;1662;49.310;8.134;2023-09-07T13:37:51;9.93;;;9.37;;
3299;SDS011;1662;49.310;8.134;2023-09-07T13:40:17;10.50;;;9.80;;
3299;SDS011;1662;49.310;8.134;2023-09-07T13:42:47;10.63;;;9.83;;
3299;SDS011;1662;49.310;8.134;2023-09-07T13:45:13;9.50;;;9.10;;
3299;SDS011;1662;49.310;8.134;2023-09-07T13:47:38;9.67;;;9.03;;
3299;SDS011;1662;49.310;8.134;2023-09-07T13:50:04;9.80;;;9.40;;
3299;SDS011;1662;49.310;8.134;2023-09-07T13:52:30;10.60;;;9.80;;
3299;SDS011;1662;49.310;8.134;2023-09-07T13:54:56;10.57;;;9.87;;
3299;SDS011;1662;49.310;8.134;2023-09-07T13:57:22;9.67;;;9.00;;
3299;SDS011;1662;49.310;8.134;2023-09-07T13:59:47;10.30;;;9.70;;
3299;SDS011;1662;49.310;8.134;2023-09-07T14:02:14;10.70;;;10.00;;
3299;SDS011;1662;49.310;8.134;2023-09-07T14:04:39;10.10;;;9.50;;
3299;SDS011;1662;49.310;8.134;2023-09-07T14:07:05;11.40;;;10.10;;
3299;SDS011;1662;49.310;8.134;2023-09-07T14:09:30;11.17;;;10.10;;
3299;SDS011;1662;49.310;8.134;2023-09-07T14:11:56;10.37;;;9.87;;
3299;SDS011;1662;49.310;8.134;2023-09-07T14:14:22;10.37;;;9.97;;
3299;SDS011;1662;49.310;8.134;2023-09-07T14:16:47;10.03;;;9.43;;
3299;SDS011;1662;49.310;8.134;2023-09-07T14:19:15;9.50;;;9.10;;
3299;SDS011;1662;49.310;8.134;2023-09-07T14:21:43;10.47;;;9.77;;
3299;SDS011;1662;49.310;8.134;2023-09-07T14:24:08;13.40;;;10.17;;
3299;SDS011;1662;49.310;8.134;2023-09-07T14:26:34;10.23;;;9.63;;
3299;SDS011;1662;49.310;8.134;2023-09-07T14:28:59;10.40;;;9.90;;
3299;SDS011;1662;49.310;8.134;2023-09-07T14:31:25;10.00;;;9.60;;
3299;SDS011;1662;49.310;8.134;2023-09-07T14:33:52;10.87;;;10.27;;
3299;SDS011;1662;49.310;8.134;2023-09-07T14:36:18;10.80;;;9.90;;
3299;SDS011;1662;49.310;8.134;2023-09-07T14:38:44;10.30;;;9.80;;
3299;SDS011;1662;49.310;8.134;2023-09-07T14:41:10;10.50;;;10.03;;
3299;SDS011;1662;49.310;8.134;2023-09-07T14:43:47;11.50;;;10.67;;
3299;SDS011;1662;49.310;8.134;2023-09-07T14:46:13;10.50;;;9.90;;
3299;SDS011;1662;49.310;8.134;2023-09-07T14:48:40;10.80;;;10.20;;
3299;SDS011;1662;49.310;8.134;2023-09-07T14:51:05;11.20;;;10.30;;
3299;SDS011;1662;49.310;8.134;2023-09-07T14:53:31;11.07;;;10.10;;
3299;SDS011;1662;49.310;8.134;2023-09-07T14:55:57;10.40;;;9.80;;
3299;SDS011;1662;49.310;8.134;2023-09-07T14:58:22;10.40;;;9.90;;
3299;SDS011;1662;49.310;8.134;2023-09-07T15:00:48;9.90;;;9.50;;
3299;SDS011;1662;49.310;8.134;2023-09-07T15:03:13;11.10;;;10.40;;
3299;SDS011;1662;49.310;8.134;2023-09-07T15:05:39;11.37;;;10.40;;
3299;SDS011;1662;49.310;8.134;2023-09-07T15:08:05;10.53;;;10.03;;
3299;SDS011;1662;49.310;8.134;2023-09-07T15:10:32;11.07;;;10.50;;
3299;SDS011;1662;49.310;8.134;2023-09-07T15:12:59;10.43;;;10.03;;
3299;SDS011;1662;49.310;8.134;2023-09-07T15:15:27;11.00;;;10.60;;
3299;SDS011;1662;49.310;8.134;2023-09-07T15:17:54;10.10;;;9.50;;
3299;SDS011;1662;49.310;8.134;2023-09-07T15:20:19;10.53;;;9.93;;
3299;SDS011;1662;49.310;8.134;2023-09-07T15:22:45;11.10;;;10.50;;